createdAt,value
2019-03-22T00:00:49.955Z,7.30
2019-03-22T00:03:21.214Z,7.30
2019-03-22T00:05:52.394Z,7.30
2019-03-22T00:08:23.563Z,7.30
2019-03-22T00:10:54.723Z,7.30
2019-03-22T00:13:25.891Z,7.30
2019-03-22T00:15:57.019Z,7.30
2019-03-22T00:18:28.794Z,7.30
2019-03-22T00:20:59.958Z,7.30
2019-03-22T00:23:31.103Z,7.30
2019-03-22T00:26:02.260Z,7.30
2019-03-22T00:28:33.397Z,7.30
2019-03-22T00:31:04.540Z,7.20
2019-03-22T00:33:35.753Z,7.20
2019-03-22T00:36:06.885Z,7.20
2019-03-22T00:38:38.050Z,7.20
2019-03-22T00:41:09.235Z,7.10
2019-03-22T00:43:40.413Z,7.20
2019-03-22T00:46:11.628Z,7.20
2019-03-22T00:48:44.913Z,7.20
2019-03-22T00:51:16.059Z,7.20
2019-03-22T00:53:47.199Z,7.20
2019-03-22T00:56:18.383Z,7.20
2019-03-22T00:58:49.528Z,7.20
2019-03-22T01:01:20.702Z,7.20
2019-03-22T01:03:51.911Z,7.20
2019-03-22T01:06:23.063Z,7.20
2019-03-22T01:08:54.281Z,7.20
2019-03-22T01:11:25.431Z,7.20
2019-03-22T01:13:56.567Z,7.20
2019-03-22T01:16:27.742Z,7.20
2019-03-22T01:18:58.919Z,7.20
2019-03-22T01:21:30.100Z,7.20
2019-03-22T01:24:01.340Z,7.20
2019-03-22T01:26:32.491Z,7.20
2019-03-22T01:29:03.647Z,7.10
2019-03-22T01:31:34.805Z,7.10
2019-03-22T01:34:05.966Z,7.10
2019-03-22T01:36:37.128Z,7.10
2019-03-22T01:39:10.124Z,7.10
2019-03-22T01:41:41.303Z,7.10
2019-03-22T01:44:12.444Z,7.00
2019-03-22T01:46:43.609Z,7.00
2019-03-22T01:49:14.763Z,6.90
2019-03-22T01:51:45.909Z,6.90
2019-03-22T01:54:17.076Z,6.80
2019-03-22T01:56:48.243Z,6.80
2019-03-22T01:59:19.413Z,6.80
2019-03-22T02:01:50.595Z,6.80
2019-03-22T02:04:22.057Z,6.80
2019-03-22T02:06:53.202Z,6.70
2019-03-22T02:09:24.465Z,6.70
2019-03-22T02:11:55.602Z,6.70
2019-03-22T02:14:26.728Z,6.70
2019-03-22T02:16:57.902Z,6.70
2019-03-22T02:19:29.059Z,6.70
2019-03-22T02:22:00.270Z,6.70
2019-03-22T02:24:31.447Z,6.70
2019-03-22T02:27:02.581Z,6.70
2019-03-22T02:29:33.724Z,6.60
2019-03-22T02:32:04.929Z,6.60
2019-03-22T02:34:36.926Z,6.50
2019-03-22T02:37:08.095Z,6.50
2019-03-22T02:39:39.517Z,6.50
2019-03-22T02:42:10.995Z,6.50
2019-03-22T02:44:42.172Z,6.50
2019-03-22T02:47:13.363Z,6.50
2019-03-22T02:49:44.505Z,6.50
2019-03-22T02:52:15.700Z,6.40
2019-03-22T02:54:46.845Z,6.40
2019-03-22T02:57:18.024Z,6.40
2019-03-22T02:59:49.199Z,6.40
2019-03-22T03:02:20.361Z,6.40
2019-03-22T03:04:51.570Z,6.40
2019-03-22T03:07:22.763Z,6.40
2019-03-22T03:09:53.996Z,6.30
2019-03-22T03:12:25.205Z,6.30
2019-03-22T03:14:56.359Z,6.20
2019-03-22T03:17:27.515Z,6.20
2019-03-22T03:19:58.645Z,6.20
2019-03-22T03:22:29.836Z,6.20
2019-03-22T03:25:00.964Z,6.10
2019-03-22T03:27:32.105Z,6.10
2019-03-22T03:30:03.309Z,6.20
2019-03-22T03:32:34.499Z,6.20
2019-03-22T03:35:06.023Z,6.10
2019-03-22T03:37:37.221Z,6.20
2019-03-22T03:40:10.056Z,6.20
2019-03-22T03:42:41.255Z,6.30
2019-03-22T03:45:36.288Z,6.30
2019-03-22T03:48:09.710Z,6.30
2019-03-22T03:50:40.956Z,6.30
2019-03-22T03:53:12.138Z,6.30
2019-03-22T03:55:43.350Z,6.40
2019-03-22T03:58:14.526Z,6.40
2019-03-22T04:00:45.766Z,6.40
2019-03-22T04:03:16.927Z,6.40
2019-03-22T04:05:48.119Z,6.40
2019-03-22T04:08:19.286Z,6.40
2019-03-22T04:10:50.523Z,6.40
2019-03-22T04:13:21.679Z,6.40
2019-03-22T04:15:52.942Z,6.40
2019-03-22T04:18:24.129Z,6.40
2019-03-22T04:20:55.292Z,6.40
2019-03-22T04:23:26.423Z,6.40
2019-03-22T04:25:57.589Z,6.40
2019-03-22T04:28:28.743Z,6.40
2019-03-22T04:30:59.871Z,6.40
2019-03-22T04:33:31.085Z,6.40
2019-03-22T04:36:02.250Z,6.40
2019-03-22T04:38:33.385Z,6.40
2019-03-22T04:41:04.537Z,6.40
2019-03-22T04:43:35.676Z,6.40
2019-03-22T04:46:08.825Z,6.30
2019-03-22T04:48:40.800Z,6.30
2019-03-22T04:51:12.565Z,6.30
2019-03-22T04:53:55.968Z,6.40
2019-03-22T04:56:28.136Z,6.30
2019-03-22T04:59:02.220Z,6.30
2019-03-22T05:01:35.490Z,6.30
2019-03-22T05:04:09.643Z,6.30
2019-03-22T05:06:42.668Z,6.30
2019-03-22T05:09:15.745Z,6.30
2019-03-22T05:11:49.515Z,6.30
2019-03-22T05:14:21.895Z,6.30
2019-03-22T05:16:55.712Z,6.30
2019-03-22T05:19:29.914Z,6.30
2019-03-22T05:22:03.375Z,6.30
2019-03-22T05:24:37.622Z,6.30
2019-03-22T05:27:10.116Z,6.30
2019-03-22T05:29:43.338Z,6.30
2019-03-22T05:32:17.794Z,6.30
2019-03-22T05:34:49.012Z,6.30
2019-03-22T05:37:20.231Z,6.30
2019-03-22T05:39:51.673Z,6.30
2019-03-22T05:42:22.866Z,6.30
2019-03-22T05:44:54.041Z,6.30
2019-03-22T05:47:25.203Z,6.30
2019-03-22T05:49:56.379Z,6.30
2019-03-22T05:52:27.630Z,6.30
2019-03-22T05:54:58.778Z,6.30
2019-03-22T05:57:32.992Z,6.20
2019-03-22T06:00:04.743Z,6.20
2019-03-22T06:02:35.982Z,6.20
2019-03-22T06:05:07.915Z,6.10
2019-03-22T06:07:39.112Z,6.10
2019-03-22T06:10:10.326Z,6.10
2019-03-22T06:12:41.536Z,6.20
2019-03-22T06:15:13.007Z,6.20
2019-03-22T06:17:51.572Z,6.20
2019-03-22T06:20:17.162Z,6.20
2019-03-22T06:22:48.320Z,6.20
2019-03-22T06:25:19.562Z,6.20
2019-03-22T06:27:50.795Z,6.20
2019-03-22T06:30:22.033Z,6.20
2019-03-22T06:32:53.245Z,6.20
2019-03-22T06:35:24.426Z,6.20
2019-03-22T06:37:55.809Z,6.20
2019-03-22T06:40:27.022Z,6.20
2019-03-22T06:42:58.228Z,6.20
2019-03-22T06:45:29.406Z,6.20
2019-03-22T06:48:00.638Z,6.20
2019-03-22T06:50:31.855Z,6.20
2019-03-22T06:53:03.034Z,6.30
2019-03-22T06:55:34.404Z,6.30
2019-03-22T06:58:05.666Z,6.30
2019-03-22T07:00:36.832Z,6.40
2019-03-22T07:03:07.988Z,6.40
2019-03-22T07:05:39.248Z,6.40
2019-03-22T07:08:10.437Z,6.40
2019-03-22T07:10:41.664Z,6.40
2019-03-22T07:13:12.835Z,6.40
2019-03-22T07:15:44.033Z,6.50
2019-03-22T07:18:15.156Z,6.50
2019-03-22T07:20:46.325Z,6.50
2019-03-22T07:23:17.473Z,6.50
2019-03-22T07:25:48.699Z,6.50
2019-03-22T07:28:19.946Z,6.60
2019-03-22T07:30:51.173Z,6.50
2019-03-22T07:33:22.333Z,6.60
2019-03-22T07:35:53.503Z,6.50
2019-03-22T07:38:24.695Z,6.50
2019-03-22T07:40:55.854Z,6.50
2019-03-22T07:43:27.014Z,6.50
2019-03-22T07:45:58.158Z,6.50
2019-03-22T07:48:29.318Z,6.60
2019-03-22T07:51:00.507Z,6.50
2019-03-22T07:53:31.667Z,6.60
2019-03-22T07:56:02.809Z,6.60
2019-03-22T07:58:34.025Z,6.70
2019-03-22T08:01:05.315Z,6.70
2019-03-22T08:03:36.465Z,6.80
2019-03-22T08:06:07.811Z,6.80
2019-03-22T08:08:39.005Z,6.80
2019-03-22T08:11:10.257Z,6.80
2019-03-22T08:13:42.996Z,6.90
2019-03-22T08:16:14.251Z,6.90
2019-03-22T08:18:45.411Z,7.00
2019-03-22T08:21:16.598Z,7.10
2019-03-22T08:23:47.748Z,7.10
2019-03-22T08:26:18.938Z,7.10
2019-03-22T08:28:50.177Z,7.20
2019-03-22T08:31:21.357Z,7.30
2019-03-22T08:33:53.906Z,7.30
2019-03-22T08:36:25.249Z,7.30
2019-03-22T08:38:56.393Z,7.30
2019-03-22T08:41:27.634Z,7.40
2019-03-22T08:43:58.880Z,7.40
2019-03-22T08:46:30.061Z,7.50
2019-03-22T08:49:01.401Z,7.60
2019-03-22T08:51:32.636Z,7.70
2019-03-22T08:54:03.910Z,7.70
2019-03-22T08:56:36.276Z,7.70
2019-03-22T08:59:07.879Z,7.90
2019-03-22T09:01:39.040Z,8.00
2019-03-22T09:04:10.178Z,8.00
2019-03-22T09:06:41.433Z,8.10
2019-03-22T09:09:13.014Z,8.10
2019-03-22T09:11:44.235Z,8.30
2019-03-22T09:14:15.488Z,8.60
2019-03-22T09:16:46.702Z,8.80
2019-03-22T09:19:17.880Z,8.90
2019-03-22T09:21:49.127Z,8.90
2019-03-22T09:24:20.294Z,9.00
2019-03-22T09:26:51.439Z,9.10
2019-03-22T09:29:22.697Z,9.30
2019-03-22T09:31:54.052Z,9.40
2019-03-22T09:34:33.534Z,9.60
2019-03-22T09:36:58.288Z,9.80
2019-03-22T09:39:29.468Z,9.90
2019-03-22T09:42:00.630Z,10.10
2019-03-22T09:44:42.835Z,10.60
2019-03-22T09:47:04.897Z,11.20
2019-03-22T09:49:36.142Z,11.70
2019-03-22T09:52:07.321Z,12.30
2019-03-22T09:54:38.552Z,12.90
2019-03-22T09:57:09.851Z,13.40
2019-03-22T09:59:41.050Z,13.90
2019-03-22T10:02:12.235Z,14.40
2019-03-22T10:04:43.440Z,14.80
2019-03-22T10:07:14.757Z,15.20
2019-03-22T10:09:46.010Z,15.60
2019-03-22T10:12:17.218Z,16.10
2019-03-22T10:14:48.351Z,16.50
2019-03-22T10:17:19.582Z,16.80
2019-03-22T10:19:50.766Z,17.00
2019-03-22T10:22:21.936Z,17.10
2019-03-22T10:24:53.145Z,17.10
2019-03-22T10:27:24.332Z,17.20
2019-03-22T10:29:55.535Z,17.60
2019-03-22T10:32:26.751Z,17.90
2019-03-22T10:34:58.064Z,18.20
2019-03-22T10:37:29.259Z,18.50
2019-03-22T10:40:00.569Z,18.80
2019-03-22T10:42:31.829Z,19.20
2019-03-22T10:45:03.059Z,19.60
2019-03-22T10:47:34.256Z,19.80
2019-03-22T10:50:06.184Z,19.90
2019-03-22T10:52:37.437Z,20.00
2019-03-22T10:55:28.572Z,20.20
2019-03-22T10:57:42.269Z,20.50
2019-03-22T11:00:17.623Z,20.80
2019-03-22T11:02:48.832Z,21.00
2019-03-22T11:05:19.964Z,21.20
2019-03-22T11:07:51.183Z,21.20
2019-03-22T11:10:22.415Z,21.30
2019-03-22T11:12:53.601Z,21.50
2019-03-22T11:15:24.760Z,21.50
2019-03-22T11:17:55.929Z,21.60
2019-03-22T11:20:27.118Z,21.70
2019-03-22T11:22:58.392Z,21.80
2019-03-22T11:25:29.588Z,21.90
2019-03-22T11:28:00.793Z,22.10
2019-03-22T11:30:31.998Z,22.20
2019-03-22T11:33:03.168Z,22.40
2019-03-22T11:35:34.330Z,22.50
2019-03-22T11:38:05.517Z,22.70
2019-03-22T11:40:36.685Z,22.90
2019-03-22T11:43:08.789Z,23.20
2019-03-22T11:45:40.450Z,23.40
2019-03-22T11:48:11.624Z,23.80
2019-03-22T11:50:42.767Z,23.90
2019-03-22T11:53:14.037Z,24.00
2019-03-22T11:55:45.311Z,24.30
2019-03-22T11:58:16.519Z,24.50
2019-03-22T12:00:47.706Z,24.50
2019-03-22T12:03:18.909Z,24.50
2019-03-22T12:05:50.096Z,24.60
2019-03-22T12:08:21.264Z,24.90
2019-03-22T12:10:52.474Z,25.20
2019-03-22T12:13:23.644Z,24.90
2019-03-22T12:15:54.871Z,24.70
2019-03-22T12:18:26.082Z,24.30
2019-03-22T12:20:57.314Z,24.00
2019-03-22T12:23:28.563Z,23.70
2019-03-22T12:25:59.781Z,23.60
2019-03-22T12:28:30.989Z,24.00
2019-03-22T12:31:02.385Z,24.30
2019-03-22T12:33:33.817Z,24.70
2019-03-22T12:36:05.064Z,25.30
2019-03-22T12:38:36.282Z,25.60
2019-03-22T12:41:07.476Z,25.70
2019-03-22T12:43:38.620Z,25.90
2019-03-22T12:46:09.826Z,26.00
2019-03-22T12:48:40.994Z,25.40
2019-03-22T12:51:12.156Z,24.70
2019-03-22T12:53:43.336Z,24.60
2019-03-22T12:56:14.497Z,25.00
2019-03-22T12:58:45.708Z,25.30
2019-03-22T13:01:16.914Z,25.50
2019-03-22T13:03:48.071Z,25.60
2019-03-22T13:06:19.233Z,25.60
2019-03-22T13:08:50.457Z,25.50
2019-03-22T13:11:21.625Z,25.30
2019-03-22T13:13:52.826Z,25.20
2019-03-22T13:16:23.989Z,25.50
2019-03-22T13:18:55.191Z,25.90
2019-03-22T13:21:26.346Z,26.40
2019-03-22T13:23:57.548Z,26.60
2019-03-22T13:26:28.691Z,26.70
2019-03-22T13:28:59.934Z,26.70
2019-03-22T13:31:31.149Z,26.50
2019-03-22T13:34:02.284Z,26.50
2019-03-22T13:36:33.442Z,26.30
2019-03-22T13:39:06.296Z,26.40
2019-03-22T13:41:37.495Z,26.50
2019-03-22T13:44:08.650Z,26.30
2019-03-22T13:46:40.706Z,26.20
2019-03-22T13:49:12.125Z,26.00
2019-03-22T13:51:43.271Z,25.80
2019-03-22T13:54:14.439Z,25.60
2019-03-22T13:56:45.637Z,25.30
2019-03-22T13:59:16.809Z,25.20
2019-03-22T14:01:48.028Z,24.80
2019-03-22T14:04:19.240Z,24.20
2019-03-22T14:06:50.381Z,23.70
2019-03-22T14:09:21.586Z,23.30
2019-03-22T14:11:52.773Z,22.90
2019-03-22T14:14:23.932Z,22.60
2019-03-22T14:16:55.133Z,21.90
2019-03-22T14:19:26.293Z,21.50
2019-03-22T14:21:57.453Z,21.40
2019-03-22T14:24:28.715Z,21.10
2019-03-22T14:27:00.006Z,20.90
2019-03-22T14:29:31.341Z,20.70
2019-03-22T14:32:02.520Z,20.80
2019-03-22T14:34:33.705Z,20.80
2019-03-22T14:37:04.905Z,20.80
2019-03-22T14:39:36.076Z,20.70
2019-03-22T14:42:07.262Z,20.70
2019-03-22T14:44:38.479Z,20.70
2019-03-22T14:47:09.657Z,20.70
2019-03-22T14:49:40.856Z,20.70
2019-03-22T14:52:12.111Z,20.60
2019-03-22T14:54:43.267Z,20.50
2019-03-22T14:57:14.432Z,20.50
2019-03-22T14:59:45.627Z,20.50
2019-03-22T15:02:16.791Z,20.50
2019-03-22T15:04:47.979Z,20.40
2019-03-22T15:07:20.079Z,20.30
2019-03-22T15:09:51.646Z,20.30
2019-03-22T15:12:23.473Z,20.30
2019-03-22T15:15:13.590Z,20.20
2019-03-22T15:18:02.408Z,20.20
2019-03-22T15:21:07.622Z,20.20
2019-03-22T15:24:12.899Z,20.10
2019-03-22T15:27:14.918Z,20.00
2019-03-22T15:30:04.268Z,20.00
2019-03-22T15:32:48.542Z,19.90
2019-03-22T15:35:50.441Z,19.90
2019-03-22T15:41:52.085Z,19.80
2019-03-22T15:46:54.427Z,19.80
2019-03-22T15:49:25.581Z,20.10
2019-03-22T15:51:56.774Z,20.30
2019-03-22T15:54:27.969Z,20.40
2019-03-22T15:56:59.163Z,20.50
2019-03-22T15:59:30.386Z,20.50
2019-03-22T16:02:01.572Z,20.40
2019-03-22T16:04:32.760Z,20.40
2019-03-22T16:07:03.957Z,20.60
2019-03-22T16:09:35.118Z,20.70
2019-03-22T16:12:06.423Z,20.80
2019-03-22T16:14:37.649Z,20.80
2019-03-22T16:17:08.811Z,20.60
2019-03-22T16:19:40.070Z,20.40
2019-03-22T16:22:11.376Z,20.40
2019-03-22T16:24:42.597Z,20.20
2019-03-22T16:27:13.788Z,19.90
2019-03-22T16:29:45.029Z,19.70
2019-03-22T16:32:16.197Z,19.50
2019-03-22T16:34:47.343Z,19.30
2019-03-22T16:37:18.562Z,19.00
2019-03-22T16:39:49.735Z,18.80
2019-03-22T16:42:20.974Z,18.60
2019-03-22T16:44:52.206Z,18.60
2019-03-22T16:47:23.383Z,18.50
2019-03-22T16:49:54.608Z,18.40
2019-03-22T16:52:25.792Z,18.40
2019-03-22T16:54:56.977Z,17.70
2019-03-22T16:57:28.271Z,16.70
2019-03-22T16:59:59.470Z,15.60
2019-03-22T17:02:30.651Z,14.90
2019-03-22T17:05:02.046Z,14.40
2019-03-22T17:07:33.277Z,14.10
2019-03-22T17:10:04.592Z,13.90
2019-03-22T17:12:35.842Z,13.80
2019-03-22T17:15:07.911Z,13.60
2019-03-22T17:17:39.107Z,13.40
2019-03-22T17:20:10.402Z,13.30
2019-03-22T17:22:41.635Z,13.30
2019-03-22T17:25:12.789Z,13.20
2019-03-22T17:27:44.573Z,13.00
2019-03-22T17:30:16.292Z,12.90
2019-03-22T17:32:47.465Z,12.80
2019-03-22T17:35:18.636Z,12.70
2019-03-22T17:37:49.870Z,12.70
2019-03-22T17:40:21.080Z,12.60
2019-03-22T17:42:52.325Z,12.70
2019-03-22T17:45:23.580Z,12.80
2019-03-22T17:47:54.760Z,12.70
2019-03-22T17:50:25.913Z,12.70
2019-03-22T17:52:57.154Z,12.70
2019-03-22T17:55:28.420Z,12.50
2019-03-22T17:57:59.578Z,12.40
2019-03-22T18:00:30.780Z,12.20
2019-03-22T18:03:01.987Z,12.10
2019-03-22T18:05:33.234Z,12.00
2019-03-22T18:08:04.524Z,11.90
2019-03-22T18:10:35.684Z,11.70
2019-03-22T18:13:06.858Z,11.60
2019-03-22T18:15:38.067Z,11.50
2019-03-22T18:18:09.250Z,11.40
2019-03-22T18:20:40.611Z,11.30
2019-03-22T18:23:11.946Z,11.30
2019-03-22T18:25:43.143Z,11.20
2019-03-22T18:28:14.663Z,11.00
2019-03-22T18:30:45.882Z,10.90
2019-03-22T18:33:17.092Z,10.80
2019-03-22T18:35:48.270Z,10.80
2019-03-22T18:38:19.483Z,10.70
2019-03-22T18:40:50.731Z,10.60
2019-03-22T18:43:22.075Z,10.40
2019-03-22T18:45:53.235Z,10.30
2019-03-22T18:48:24.475Z,10.20
2019-03-22T18:50:56.883Z,10.10
2019-03-22T18:53:28.730Z,10.00
2019-03-22T18:55:59.951Z,10.00
2019-03-22T18:58:31.166Z,10.10
2019-03-22T19:01:02.399Z,10.00
2019-03-22T19:03:33.604Z,10.00
2019-03-22T19:06:04.775Z,10.00
2019-03-22T19:08:35.946Z,10.00
2019-03-22T19:11:07.238Z,10.00
2019-03-22T19:13:38.468Z,10.00
2019-03-22T19:16:09.667Z,10.00
2019-03-22T19:18:40.872Z,10.00
2019-03-22T19:21:12.157Z,10.00
2019-03-22T19:23:43.343Z,10.10
2019-03-22T19:26:14.638Z,10.10
2019-03-22T19:28:45.794Z,10.10
2019-03-22T19:31:17.076Z,10.20
2019-03-22T19:33:48.348Z,10.30
2019-03-22T19:36:19.517Z,10.30
2019-03-22T19:38:50.704Z,10.40
2019-03-22T19:41:23.792Z,10.40
2019-03-22T19:43:55.073Z,10.30
2019-03-22T19:46:26.311Z,10.30
2019-03-22T19:48:57.483Z,10.30
2019-03-22T19:51:28.737Z,10.20
2019-03-22T19:53:59.946Z,10.20
2019-03-22T19:56:31.205Z,10.20
2019-03-22T19:59:02.402Z,10.10
2019-03-22T20:01:33.607Z,10.10
2019-03-22T20:04:04.852Z,10.10
2019-03-22T20:06:36.080Z,10.10
2019-03-22T20:09:10.275Z,10.20
2019-03-22T20:11:41.528Z,10.10
2019-03-22T20:14:12.698Z,10.00
2019-03-22T20:16:43.929Z,9.90
2019-03-22T20:19:15.161Z,9.80
2019-03-22T20:21:46.936Z,9.80
2019-03-22T20:24:18.206Z,9.70
2019-03-22T20:26:49.438Z,9.80
2019-03-22T20:29:20.589Z,9.80
2019-03-22T20:31:51.781Z,9.80
2019-03-22T20:34:23.035Z,9.90
2019-03-22T20:36:54.307Z,9.90
2019-03-22T20:39:25.525Z,10.00
2019-03-22T20:41:56.749Z,10.00
2019-03-22T20:44:33.779Z,10.10
2019-03-22T20:47:01.002Z,10.00
2019-03-22T20:49:32.238Z,10.00
2019-03-22T20:52:03.484Z,9.90
2019-03-22T20:54:34.712Z,9.90
2019-03-22T20:57:05.974Z,9.80
2019-03-22T20:59:37.158Z,9.70
2019-03-22T21:02:08.331Z,9.70
2019-03-22T21:04:39.587Z,9.70
2019-03-22T21:07:10.761Z,9.70
2019-03-22T21:09:41.994Z,9.70
2019-03-22T21:12:13.358Z,9.70
2019-03-22T21:14:44.511Z,9.70
2019-03-22T21:17:16.313Z,9.90
2019-03-22T21:19:47.719Z,9.90
2019-03-22T21:22:18.891Z,10.10
2019-03-22T21:24:50.052Z,10.00
2019-03-22T21:27:21.225Z,10.10
2019-03-22T21:29:52.459Z,10.00
2019-03-22T21:32:23.647Z,10.00
2019-03-22T21:34:54.873Z,9.90
2019-03-22T21:37:26.108Z,9.80
2019-03-22T21:39:57.310Z,9.90
2019-03-22T21:42:28.527Z,9.80
2019-03-22T21:44:59.848Z,9.80
2019-03-22T21:47:31.094Z,9.70
2019-03-22T21:50:02.269Z,9.70
2019-03-22T21:52:33.550Z,9.60
2019-03-22T21:55:04.831Z,9.60
2019-03-22T21:57:36.003Z,9.70
2019-03-22T22:00:07.930Z,9.80
2019-03-22T22:02:39.099Z,9.80
2019-03-22T22:05:10.995Z,9.80
2019-03-22T22:07:42.186Z,9.80
2019-03-22T22:10:13.409Z,9.80
2019-03-22T22:12:44.692Z,9.80
2019-03-22T22:15:15.979Z,9.80
2019-03-22T22:17:47.183Z,9.80
2019-03-22T22:20:28.527Z,9.80
2019-03-22T22:22:51.337Z,9.80
2019-03-22T22:25:22.566Z,9.90
2019-03-22T22:27:53.756Z,9.90
2019-03-22T22:30:24.949Z,9.90
2019-03-22T22:32:56.176Z,9.90
2019-03-22T22:35:27.342Z,9.90
2019-03-22T22:37:58.530Z,9.90
2019-03-22T22:40:29.787Z,10.00
2019-03-22T22:43:01.016Z,9.90
2019-03-22T22:45:32.366Z,10.00
2019-03-22T22:48:03.706Z,10.00
2019-03-22T22:50:34.917Z,10.00
2019-03-22T22:53:06.140Z,10.00
2019-03-22T22:55:37.617Z,9.90
2019-03-22T22:58:08.876Z,9.80
2019-03-22T23:00:40.382Z,9.70
2019-03-22T23:03:11.547Z,9.60
2019-03-22T23:05:42.720Z,9.60
2019-03-22T23:08:13.979Z,9.50
2019-03-22T23:10:45.196Z,9.50
2019-03-22T23:13:16.453Z,9.40
2019-03-22T23:15:47.643Z,9.40
2019-03-22T23:18:18.835Z,9.50
2019-03-22T23:20:50.031Z,9.50
2019-03-22T23:23:21.254Z,9.50
2019-03-22T23:25:52.507Z,9.50
2019-03-22T23:28:23.834Z,9.50
2019-03-22T23:30:55.048Z,9.50
2019-03-22T23:33:26.241Z,9.60
2019-03-22T23:35:57.407Z,9.60
2019-03-22T23:38:28.684Z,9.60
2019-03-22T23:41:00.155Z,9.60
2019-03-22T23:43:31.392Z,9.70
2019-03-22T23:46:02.586Z,9.70
2019-03-22T23:48:33.789Z,9.70
2019-03-22T23:51:04.949Z,9.70
2019-03-22T23:53:36.205Z,9.80
2019-03-22T23:56:07.381Z,9.80
2019-03-22T23:58:39.335Z,9.80
